Dades meteomassalio
Diari Summary for Febrer 12, 2018 Units:  Both    English   Metric
« Previous Day
Next Day »
Diari Semanal Mensual Anual Personalitzat
  Maxima: Minima: Mijana:
Temperatura: TemperatureC °F /  -17.8 °C 2.8 °F /  -16.2 °C 7.5 °F /  -13.6 °C
Rosada: DewpointC °F /  -17.8 °C -2.9 °F /  -19.4 °C 1.6 °F /  -16.9 °C
Humitat: Humidity % 44 % 67 %
Velocitat del vent: WindSpeedKMH mph /  0 km/h - 32.8 mph /  52.8 km/h
Racha vent: WindSpeedGustKMH mph /  0 km/h - -
Vent:- - NW
Pressio: PressurehPa in /  0 hPa 1018.8 in /  34496.6 hPa -
Pluja: 0.3 in /  7.62 mm    
Historical Graphs
 
 
Tabular Data for Febrer 12, 2018
Time Temperature Dew Point Pressure Wind Wind Speed Wind Gust Humidity Rainfall Rate (Hourly) solar Conditions
TemperatureC °F /  -17.8 °C DewpointC °F /  -17.8 °C PressurehPa in /  0 hPa Calm     Humidity % HourlyPrecipMM in /  0 mm SolarRadiationWatts/m^2 W/m2 Conditions
00:03 10.0 °F /  -12.2 °C 6.9 °F /  -13.9 °C 1019.9 in /  34533.8 hPa NNW 33.3 mph /  53.6 km/h 33.3 mph /  53.6 km/h 81 % 0.0 in /  0 mm 0.0 W/m2 CLR
00:08 10.0 °F /  -12.2 °C 7.1 °F /  -13.8 °C 1019.9 in /  34533.8 hPa NNW 27.8 mph /  44.7 km/h 27.8 mph /  44.7 km/h 82 % 0.0 in /  0 mm 0.0 W/m2 CLR
00:13 9.4 °F /  -12.6 °C 6.5 °F /  -14.2 °C 1019.9 in /  34533.8 hPa NNW 25.9 mph /  41.7 km/h 25.9 mph /  41.7 km/h 82 % 0.0 in /  0 mm 0.0 W/m2 CLR
00:18 9.4 °F /  -12.6 °C 6.7 °F /  -14.1 °C 1019.9 in /  34533.8 hPa NNW 25.9 mph /  41.7 km/h 25.9 mph /  41.7 km/h 83 % 0.0 in /  0 mm 0.0 W/m2 CLR
00:23 9.4 °F /  -12.6 °C 6.5 °F /  -14.2 °C 1019.9 in /  34533.8 hPa NNW 27.8 mph /  44.7 km/h 27.8 mph /  44.7 km/h 82 % 0.0 in /  0 mm 0.0 W/m2 CLR
00:28 9.4 °F /  -12.6 °C 6.5 °F /  -14.2 °C 1019.9 in /  34533.8 hPa NW 24.1 mph /  38.8 km/h 24.1 mph /  38.8 km/h 82 % 0.0 in /  0 mm 0.0 W/m2 CLR
00:33 9.4 °F /  -12.6 °C 6.5 °F /  -14.2 °C 1019.9 in /  34533.8 hPa NNW 22.2 mph /  35.7 km/h 22.2 mph /  35.7 km/h 82 % 0.0 in /  0 mm 0.0 W/m2 CLR
00:38 9.4 °F /  -12.6 °C 6.7 °F /  -14.1 °C 1019.9 in /  34533.8 hPa NW 24.1 mph /  38.8 km/h 24.1 mph /  38.8 km/h 83 % 0.0 in /  0 mm 0.0 W/m2 CLR
00:43 9.4 °F /  -12.6 °C 6.9 °F /  -13.9 °C 1019.9 in /  34533.8 hPa NW 31.5 mph /  50.7 km/h 31.5 mph /  50.7 km/h 84 % 0.0 in /  0 mm 0.0 W/m2 CLR
00:48 9.4 °F /  -12.6 °C 6.9 °F /  -13.9 °C 1019.9 in /  34533.8 hPa NNW 25.9 mph /  41.7 km/h 25.9 mph /  41.7 km/h 84 % 0.0 in /  0 mm 0.0 W/m2 CLR
00:53 9.4 °F /  -12.6 °C 6.9 °F /  -13.9 °C 1019.9 in /  34533.8 hPa North 29.6 mph /  47.6 km/h 29.6 mph /  47.6 km/h 84 % 0.0 in /  0 mm 0.0 W/m2 CLR
00:58 9.4 °F /  -12.6 °C 6.7 °F /  -14.1 °C 1019.9 in /  34533.8 hPa NW 20.9 mph /  33.6 km/h 20.9 mph /  33.6 km/h 83 % 0.0 in /  0 mm 0.0 W/m2 CLR
01:03 9.4 °F /  -12.6 °C 6.7 °F /  -14.1 °C 1019.9 in /  34533.8 hPa WNW 25.9 mph /  41.7 km/h 25.9 mph /  41.7 km/h 83 % 0.0 in /  0 mm 0.0 W/m2 CLR
01:08 9.4 °F /  -12.6 °C 6.5 °F /  -14.2 °C 1019.9 in /  34533.8 hPa NW 22.2 mph /  35.7 km/h 22.2 mph /  35.7 km/h 82 % 0.0 in /  0 mm 0.0 W/m2 CLR
01:13 9.4 °F /  -12.6 °C 6.3 °F /  -14.3 °C 1019.9 in /  34533.8 hPa NW 38.6 mph /  62.1 km/h 38.6 mph /  62.1 km/h 81 % 0.0 in /  0 mm 0.0 W/m2 CLR
01:18 9.4 °F /  -12.6 °C 6.2 °F /  -14.3 °C 1019.9 in /  34533.8 hPa NW 38.9 mph /  62.6 km/h 38.9 mph /  62.6 km/h 80 % 0.0 in /  0 mm 0.0 W/m2 CLR
01:23 9.4 °F /  -12.6 °C 6.2 °F /  -14.3 °C 1019.9 in /  34533.8 hPa WNW 31.5 mph /  50.7 km/h 31.5 mph /  50.7 km/h 80 % 0.0 in /  0 mm 0.0 W/m2 CLR
01:28 8.9 °F /  -12.8 °C 5.6 °F /  -14.7 °C 1019.9 in /  34533.8 hPa NW 29.6 mph /  47.6 km/h 29.6 mph /  47.6 km/h 80 % 0.0 in /  0 mm 0.0 W/m2 CLR
01:33 8.9 °F /  -12.8 °C 5.6 °F /  -14.7 °C 1019.9 in /  34533.8 hPa NW 29.6 mph /  47.6 km/h 29.6 mph /  47.6 km/h 80 % 0.0 in /  0 mm 0.0 W/m2 CLR
01:38 8.9 °F /  -12.8 °C 5.4 °F /  -14.8 °C 1020.2 in /  34544 hPa NNW 29.6 mph /  47.6 km/h 29.6 mph /  47.6 km/h 79 % 0.0 in /  0 mm 0.0 W/m2 CLR
01:43 8.9 °F /  -12.8 °C 5.4 °F /  -14.8 °C 1020.2 in /  34544 hPa WNW 27.8 mph /  44.7 km/h 27.8 mph /  44.7 km/h 79 % 0.0 in /  0 mm 0.0 W/m2 CLR
01:48 8.9 °F /  -12.8 °C 5.4 °F /  -14.8 °C 1020.2 in /  34544 hPa NW 27.8 mph /  44.7 km/h 27.8 mph /  44.7 km/h 79 % 0.0 in /  0 mm 0.0 W/m2 CLR
01:53 8.9 °F /  -12.8 °C 5.4 °F /  -14.8 °C 1019.9 in /  34533.8 hPa NW 35.4 mph /  57 km/h 35.4 mph /  57 km/h 79 % 0.0 in /  0 mm 0.0 W/m2 CLR
01:58 8.9 °F /  -12.8 °C 5.8 °F /  -14.6 °C 1020.2 in /  34544 hPa NNW 29.0 mph /  46.7 km/h 29.0 mph /  46.7 km/h 81 % 0.0 in /  0 mm 0.0 W/m2 CLR
02:03 8.9 °F /  -12.8 °C 6.0 °F /  -14.4 °C 1020.2 in /  34544 hPa NW 31.5 mph /  50.7 km/h 31.5 mph /  50.7 km/h 82 % 0.0 in /  0 mm 0.0 W/m2 CLR
02:08 8.3 °F /  -13.2 °C 5.4 °F /  -14.8 °C 1020.2 in /  34544 hPa NW 31.5 mph /  50.7 km/h 31.5 mph /  50.7 km/h 82 % 0.0 in /  0 mm 0.0 W/m2 CLR
02:13 8.3 °F /  -13.2 °C 5.6 °F /  -14.7 °C 1019.9 in /  34533.8 hPa NW 29.6 mph /  47.6 km/h 29.6 mph /  47.6 km/h 83 % 0.0 in /  0 mm 0.0 W/m2 CLR
02:18 8.3 °F /  -13.2 °C 5.4 °F /  -14.8 °C 1019.9 in /  34533.8 hPa WNW 20.4 mph /  32.8 km/h 20.4 mph /  32.8 km/h 82 % 0.0 in /  0 mm 0.0 W/m2 CLR
02:23 8.3 °F /  -13.2 °C 5.4 °F /  -14.8 °C 1019.9 in /  34533.8 hPa NW 27.8 mph /  44.7 km/h 27.8 mph /  44.7 km/h 82 % 0.0 in /  0 mm 0.0 W/m2 CLR
02:28 8.3 °F /  -13.2 °C 5.4 °F /  -14.8 °C 1020.2 in /  34544 hPa NW 31.5 mph /  50.7 km/h 31.5 mph /  50.7 km/h 82 % 0.0 in /  0 mm 0.0 W/m2 CLR
02:33 8.3 °F /  -13.2 °C 5.3 °F /  -14.8 °C 1020.2 in /  34544 hPa WNW 29.6 mph /  47.6 km/h 29.6 mph /  47.6 km/h 81 % 0.0 in /  0 mm 0.0 W/m2 CLR
02:38 8.3 °F /  -13.2 °C 5.3 °F /  -14.8 °C 1020.2 in /  34544 hPa NW 24.1 mph /  38.8 km/h 24.1 mph /  38.8 km/h 81 % 0.0 in /  0 mm 0.0 W/m2 CLR
02:43 8.3 °F /  -13.2 °C 5.1 °F /  -14.9 °C 1020.2 in /  34544 hPa NNW 27.8 mph /  44.7 km/h 27.8 mph /  44.7 km/h 80 % 0.0 in /  0 mm 0.0 W/m2 CLR
02:48 8.3 °F /  -13.2 °C 4.9 °F /  -15.1 °C 1020.2 in /  34544 hPa NW 37.0 mph /  59.5 km/h 37.0 mph /  59.5 km/h 79 % 0.0 in /  0 mm 0.0 W/m2 CLR
02:53 8.3 °F /  -13.2 °C 4.9 °F /  -15.1 °C 1019.9 in /  34533.8 hPa WNW 37.0 mph /  59.5 km/h 37.0 mph /  59.5 km/h 79 % 0.0 in /  0 mm 0.0 W/m2 CLR
02:58 8.3 °F /  -13.2 °C 4.9 °F /  -15.1 °C 1019.9 in /  34533.8 hPa NW 42.6 mph /  68.6 km/h 42.6 mph /  68.6 km/h 79 % 0.0 in /  0 mm 0.0 W/m2 CLR
03:03 8.3 °F /  -13.2 °C 4.9 °F /  -15.1 °C 1020.2 in /  34544 hPa NNW 46.3 mph /  74.5 km/h 46.3 mph /  74.5 km/h 79 % 0.3 in /  7.62 mm 0.0 W/m2 RA
03:08 8.3 °F /  -13.2 °C 4.9 °F /  -15.1 °C 1019.9 in /  34533.8 hPa WNW 46.3 mph /  74.5 km/h 46.3 mph /  74.5 km/h 79 % 0.3 in /  7.62 mm 0.0 W/m2
03:13 8.3 °F /  -13.2 °C 4.7 °F /  -15.2 °C 1019.9 in /  34533.8 hPa WNW 38.9 mph /  62.6 km/h 38.9 mph /  62.6 km/h 78 % 0.3 in /  7.62 mm 0.0 W/m2 CLR
03:18 8.3 °F /  -13.2 °C 4.9 °F /  -15.1 °C 1019.9 in /  34533.8 hPa NW 40.7 mph /  65.5 km/h 40.7 mph /  65.5 km/h 79 % 0.3 in /  7.62 mm 0.0 W/m2 CLR
03:23 8.3 °F /  -13.2 °C 4.7 °F /  -15.2 °C 1019.9 in /  34533.8 hPa NW 29.0 mph /  46.7 km/h 31.4 mph /  50.5 km/h 78 % 0.3 in /  7.62 mm 0.0 W/m2 CLR
03:28 8.3 °F /  -13.2 °C 4.7 °F /  -15.2 °C 1019.9 in /  34533.8 hPa NW 31.5 mph /  50.7 km/h 31.5 mph /  50.7 km/h 78 % 0.3 in /  7.62 mm 0.0 W/m2 CLR
03:33 7.8 °F /  -13.4 °C 4.4 °F /  -15.3 °C 1019.9 in /  34533.8 hPa NNW 38.9 mph /  62.6 km/h 38.9 mph /  62.6 km/h 79 % 0.3 in /  7.62 mm 0.0 W/m2 CLR
03:39 7.8 °F /  -13.4 °C 4.4 °F /  -15.3 °C 1019.9 in /  34533.8 hPa NW 29.6 mph /  47.6 km/h 29.6 mph /  47.6 km/h 79 % 0.3 in /  7.62 mm 0.0 W/m2 CLR
03:43 7.8 °F /  -13.4 °C 4.4 °F /  -15.3 °C 1019.9 in /  34533.8 hPa NW 37.0 mph /  59.5 km/h 37.0 mph /  59.5 km/h 79 % 0.3 in /  7.62 mm 0.0 W/m2 CLR
03:49 7.8 °F /  -13.4 °C 4.6 °F /  -15.2 °C 1019.9 in /  34533.8 hPa WNW 33.3 mph /  53.6 km/h 33.3 mph /  53.6 km/h 80 % 0.3 in /  7.62 mm 0.0 W/m2 CLR
03:54 7.8 °F /  -13.4 °C 4.6 °F /  -15.2 °C 1019.9 in /  34533.8 hPa NW 29.6 mph /  47.6 km/h 29.6 mph /  47.6 km/h 80 % 0.3 in /  7.62 mm 0.0 W/m2 CLR
03:59 7.8 °F /  -13.4 °C 4.6 °F /  -15.2 °C 1019.9 in /  34533.8 hPa NW 27.8 mph /  44.7 km/h 27.8 mph /  44.7 km/h 80 % 0.3 in /  7.62 mm 0.0 W/m2 CLR
04:04 7.8 °F /  -13.4 °C 4.6 °F /  -15.2 °C 1019.9 in /  34533.8 hPa NNW 37.0 mph /  59.5 km/h 37.0 mph /  59.5 km/h 80 % 0.0 in /  0 mm 0.0 W/m2 CLR
04:09 7.8 °F /  -13.4 °C 4.4 °F /  -15.3 °C 1019.9 in /  34533.8 hPa NW 27.8 mph /  44.7 km/h 27.8 mph /  44.7 km/h 79 % 0.0 in /  0 mm 0.0 W/m2 CLR
04:14 7.8 °F /  -13.4 °C 4.6 °F /  -15.2 °C 1019.9 in /  34533.8 hPa WNW 31.5 mph /  50.7 km/h 31.5 mph /  50.7 km/h 80 % 0.0 in /  0 mm 0.0 W/m2 CLR
04:19 7.8 °F /  -13.4 °C 4.4 °F /  -15.3 °C 1019.9 in /  34533.8 hPa NW 25.9 mph /  41.7 km/h 25.9 mph /  41.7 km/h 79 % 0.0 in /  0 mm 0.0 W/m2 CLR
04:24 7.8 °F /  -13.4 °C 4.4 °F /  -15.3 °C 1019.9 in /  34533.8 hPa NW 31.5 mph /  50.7 km/h 31.5 mph /  50.7 km/h 79 % 0.0 in /  0 mm 0.0 W/m2 CLR
04:29 7.8 °F /  -13.4 °C 4.4 °F /  -15.3 °C 1019.9 in /  34533.8 hPa NW 25.9 mph /  41.7 km/h 25.9 mph /  41.7 km/h 79 % 0.0 in /  0 mm 0.0 W/m2 CLR
04:34 7.8 °F /  -13.4 °C 4.2 °F /  -15.4 °C 1019.9 in /  34533.8 hPa NW 22.2 mph /  35.7 km/h 22.2 mph /  35.7 km/h 78 % 0.0 in /  0 mm 0.0 W/m2 CLR
04:39 7.8 °F /  -13.4 °C 4.2 °F /  -15.4 °C 1019.9 in /  34533.8 hPa NW 30.6 mph /  49.2 km/h 30.6 mph /  49.2 km/h 78 % 0.0 in /  0 mm 0.0 W/m2 CLR
04:44 7.8 °F /  -13.4 °C 4.2 °F /  -15.4 °C 1019.9 in /  34533.8 hPa NNW 29.6 mph /  47.6 km/h 29.6 mph /  47.6 km/h 78 % 0.0 in /  0 mm 0.0 W/m2 CLR
04:49 7.8 °F /  -13.4 °C 4.2 °F /  -15.4 °C 1019.9 in /  34533.8 hPa NW 22.2 mph /  35.7 km/h 22.2 mph /  35.7 km/h 78 % 0.0 in /  0 mm 0.0 W/m2 CLR
04:54 7.8 °F /  -13.4 °C 4.4 °F /  -15.3 °C 1019.9 in /  34533.8 hPa West 38.9 mph /  62.6 km/h 38.9 mph /  62.6 km/h 79 % 0.0 in /  0 mm 0.0 W/m2 CLR
04:59 7.8 °F /  -13.4 °C 4.4 °F /  -15.3 °C 1019.9 in /  34533.8 hPa NW 31.5 mph /  50.7 km/h 31.5 mph /  50.7 km/h 79 % 0.0 in /  0 mm 0.0 W/m2 CLR
05:04 7.8 °F /  -13.4 °C 4.4 °F /  -15.3 °C 1019.9 in /  34533.8 hPa WNW 35.2 mph /  56.6 km/h 35.2 mph /  56.6 km/h 79 % 0.0 in /  0 mm 0.0 W/m2 CLR
05:09 7.8 °F /  -13.4 °C 4.4 °F /  -15.3 °C 1019.5 in /  34520.3 hPa NW 29.6 mph /  47.6 km/h 29.6 mph /  47.6 km/h 79 % 0.0 in /  0 mm 0.0 W/m2 CLR
05:14 7.8 °F /  -13.4 °C 4.4 °F /  -15.3 °C 1019.5 in /  34520.3 hPa NW 31.5 mph /  50.7 km/h 31.5 mph /  50.7 km/h 79 % 0.0 in /  0 mm 0.0 W/m2 CLR
05:19 7.2 °F /  -13.8 °C 3.8 °F /  -15.7 °C 1019.9 in /  34533.8 hPa NW 35.2 mph /  56.6 km/h 35.2 mph /  56.6 km/h 79 % 0.0 in /  0 mm 0.0 W/m2 CLR
05:24 7.2 °F /  -13.8 °C 3.8 °F /  -15.7 °C 1019.5 in /  34520.3 hPa NW 37.0 mph /  59.5 km/h 37.0 mph /  59.5 km/h 79 % 0.0 in /  0 mm 0.0 W/m2 CLR
05:29 7.2 °F /  -13.8 °C 3.7 °F /  -15.7 °C 1019.5 in /  34520.3 hPa NW 27.8 mph /  44.7 km/h 27.8 mph /  44.7 km/h 78 % 0.0 in /  0 mm 0.0 W/m2 CLR
05:34 7.2 °F /  -13.8 °C 3.8 °F /  -15.7 °C 1019.5 in /  34520.3 hPa NNW 33.8 mph /  54.4 km/h 33.8 mph /  54.4 km/h 79 % 0.0 in /  0 mm 0.0 W/m2 CLR
05:39 7.2 °F /  -13.8 °C 3.7 °F /  -15.7 °C 1019.5 in /  34520.3 hPa NNW 37.0 mph /  59.5 km/h 37.0 mph /  59.5 km/h 78 % 0.0 in /  0 mm 0.0 W/m2 CLR
05:44 7.2 °F /  -13.8 °C 3.8 °F /  -15.7 °C 1019.5 in /  34520.3 hPa NW 31.5 mph /  50.7 km/h 31.5 mph /  50.7 km/h 79 % 0.0 in /  0 mm 0.0 W/m2 CLR
05:49 7.2 °F /  -13.8 °C 3.7 °F /  -15.7 °C 1019.5 in /  34520.3 hPa NW 38.9 mph /  62.6 km/h 38.9 mph /  62.6 km/h 78 % 0.0 in /  0 mm 0.0 W/m2 CLR
05:54 7.2 °F /  -13.8 °C 3.7 °F /  -15.7 °C 1019.2 in /  34510.1 hPa NW 29.6 mph /  47.6 km/h 29.6 mph /  47.6 km/h 78 % 0.0 in /  0 mm 0.0 W/m2 CLR
05:59 6.7 °F /  -14.1 °C 3.1 °F /  -16.1 °C 1019.2 in /  34510.1 hPa NNW 35.2 mph /  56.6 km/h 35.2 mph /  56.6 km/h 78 % 0.0 in /  0 mm 0.0 W/m2 CLR
06:04 7.2 °F /  -13.8 °C 3.7 °F /  -15.7 °C 1019.2 in /  34510.1 hPa NW 35.4 mph /  57 km/h 35.4 mph /  57 km/h 78 % 0.0 in /  0 mm 0.0 W/m2 CLR
06:09 7.2 °F /  -13.8 °C 3.7 °F /  -15.7 °C 1019.5 in /  34520.3 hPa NW 31.5 mph /  50.7 km/h 31.5 mph /  50.7 km/h 78 % 0.0 in /  0 mm 0.0 W/m2 CLR
06:14 7.2 °F /  -13.8 °C 3.7 °F /  -15.7 °C 1019.2 in /  34510.1 hPa NNW 33.3 mph /  53.6 km/h 33.3 mph /  53.6 km/h 78 % 0.0 in /  0 mm 0.0 W/m2 CLR
06:19 7.2 °F /  -13.8 °C 3.4 °F /  -15.9 °C 1019.2 in /  34510.1 hPa NW 31.5 mph /  50.7 km/h 31.5 mph /  50.7 km/h 77 % 0.0 in /  0 mm 0.0 W/m2 CLR
06:24 7.2 °F /  -13.8 °C 3.4 °F /  -15.9 °C 1019.2 in /  34510.1 hPa NW 37.0 mph /  59.5 km/h 37.0 mph /  59.5 km/h 77 % 0.0 in /  0 mm 0.0 W/m2 CLR
06:29 7.2 °F /  -13.8 °C 3.4 °F /  -15.9 °C 1019.2 in /  34510.1 hPa NNW 31.5 mph /  50.7 km/h 31.5 mph /  50.7 km/h 77 % 0.0 in /  0 mm 0.0 W/m2 CLR
06:34 7.2 °F /  -13.8 °C 3.4 °F /  -15.9 °C 1019.2 in /  34510.1 hPa NW 31.5 mph /  50.7 km/h 31.5 mph /  50.7 km/h 77 % 0.0 in /  0 mm 0.0 W/m2 CLR
06:39 7.2 °F /  -13.8 °C 3.4 °F /  -15.9 °C 1019.2 in /  34510.1 hPa NW 35.2 mph /  56.6 km/h 35.2 mph /  56.6 km/h 77 % 0.0 in /  0 mm 0.0 W/m2 CLR
06:44 7.2 °F /  -13.8 °C 3.4 °F /  -15.9 °C 1019.2 in /  34510.1 hPa NW 33.8 mph /  54.4 km/h 33.8 mph /  54.4 km/h 77 % 0.0 in /  0 mm 0.0 W/m2 CLR
06:49 6.7 °F /  -14.1 °C 2.7 °F /  -16.3 °C 1019.2 in /  34510.1 hPa NW 42.6 mph /  68.6 km/h 42.6 mph /  68.6 km/h 76 % 0.0 in /  0 mm 0.0 W/m2 CLR
06:54 6.7 °F /  -14.1 °C 2.7 °F /  -16.3 °C 1019.2 in /  34510.1 hPa NW 40.7 mph /  65.5 km/h 40.7 mph /  65.5 km/h 76 % 0.0 in /  0 mm 0.0 W/m2 CLR
06:59 6.7 °F /  -14.1 °C 2.7 °F /  -16.3 °C 1019.2 in /  34510.1 hPa NNW 31.5 mph /  50.7 km/h 31.5 mph /  50.7 km/h 76 % 0.0 in /  0 mm 0.0 W/m2 CLR
07:04 6.7 °F /  -14.1 °C 2.7 °F /  -16.3 °C 1019.5 in /  34520.3 hPa NNW 33.3 mph /  53.6 km/h 33.3 mph /  53.6 km/h 76 % 0.0 in /  0 mm 0.0 W/m2 CLR
07:09 6.7 °F /  -14.1 °C 2.6 °F /  -16.3 °C 1019.5 in /  34520.3 hPa NNW 44.4 mph /  71.5 km/h 44.4 mph /  71.5 km/h 75 % 0.0 in /  0 mm 0.0 W/m2 CLR
07:14 6.7 °F /  -14.1 °C 2.7 °F /  -16.3 °C 1019.5 in /  34520.3 hPa NNW 31.5 mph /  50.7 km/h 31.5 mph /  50.7 km/h 76 % 0.0 in /  0 mm 0.0 W/m2 CLR
07:19 6.7 °F /  -14.1 °C 2.7 °F /  -16.3 °C 1019.5 in /  34520.3 hPa NW 29.6 mph /  47.6 km/h 29.6 mph /  47.6 km/h 76 % 0.0 in /  0 mm 0.0 W/m2 CLR
07:24 6.7 °F /  -14.1 °C 2.7 °F /  -16.3 °C 1019.5 in /  34520.3 hPa NNW 40.7 mph /  65.5 km/h 40.7 mph /  65.5 km/h 76 % 0.0 in /  0 mm 0.0 W/m2 CLR
07:29 6.7 °F /  -14.1 °C 2.7 °F /  -16.3 °C 1019.5 in /  34520.3 hPa NNW 37.0 mph /  59.5 km/h 37.0 mph /  59.5 km/h 76 % 0.0 in /  0 mm 0.0 W/m2 CLR
07:34 6.1 °F /  -14.4 °C 2.2 °F /  -16.6 °C 1019.5 in /  34520.3 hPa North 41.8 mph /  67.3 km/h 41.8 mph /  67.3 km/h 76 % 0.0 in /  0 mm 0.0 W/m2 CLR
07:39 6.1 °F /  -14.4 °C 2.0 °F /  -16.7 °C 1019.5 in /  34520.3 hPa WNW 30.6 mph /  49.2 km/h 30.6 mph /  49.2 km/h 75 % 0.0 in /  0 mm 0.0 W/m2 CLR
07:44 6.1 °F /  -14.4 °C 2.0 °F /  -16.7 °C 1019.5 in /  34520.3 hPa NNW 33.3 mph /  53.6 km/h 33.3 mph /  53.6 km/h 75 % 0.0 in /  0 mm 0.0 W/m2 CLR
07:49 6.1 °F /  -14.4 °C 2.0 °F /  -16.7 °C 1019.5 in /  34520.3 hPa NNW 29.6 mph /  47.6 km/h 29.6 mph /  47.6 km/h 75 % 0.0 in /  0 mm 0.0 W/m2 OVC
07:54 6.1 °F /  -14.4 °C 2.0 °F /  -16.7 °C 1019.9 in /  34533.8 hPa NNW 37.0 mph /  59.5 km/h 37.0 mph /  59.5 km/h 75 % 0.0 in /  0 mm 0.0 W/m2 OVC
07:59 6.1 °F /  -14.4 °C 2.0 °F /  -16.7 °C 1019.5 in /  34520.3 hPa NW 31.5 mph /  50.7 km/h 31.5 mph /  50.7 km/h 75 % 0.0 in /  0 mm 0.0 W/m2 OVC
08:04 6.1 °F /  -14.4 °C 2.0 °F /  -16.7 °C 1019.9 in /  34533.8 hPa NNW 40.7 mph /  65.5 km/h 40.7 mph /  65.5 km/h 75 % 0.0 in /  0 mm 0.0 W/m2 OVC
08:09 6.1 °F /  -14.4 °C 1.8 °F /  -16.8 °C 1019.9 in /  34533.8 hPa NNW 35.2 mph /  56.6 km/h 35.2 mph /  56.6 km/h 74 % 0.0 in /  0 mm 5.0 W/m2 OVC
08:14 6.1 °F /  -14.4 °C 2.0 °F /  -16.7 °C 1019.5 in /  34520.3 hPa NNW 33.8 mph /  54.4 km/h 33.8 mph /  54.4 km/h 75 % 0.0 in /  0 mm 11.0 W/m2 BKN
08:19 6.1 °F /  -14.4 °C 2.0 °F /  -16.7 °C 1019.9 in /  34533.8 hPa NW 31.5 mph /  50.7 km/h 31.5 mph /  50.7 km/h 75 % 0.0 in /  0 mm 16.0 W/m2 BKN
08:24 6.1 °F /  -14.4 °C 2.0 °F /  -16.7 °C 1019.9 in /  34533.8 hPa WNW 42.6 mph /  68.6 km/h 42.6 mph /  68.6 km/h 75 % 0.0 in /  0 mm 23.0 W/m2 BKN
08:29 6.1 °F /  -14.4 °C 2.0 °F /  -16.7 °C 1019.9 in /  34533.8 hPa North 31.5 mph /  50.7 km/h 31.5 mph /  50.7 km/h 75 % 0.0 in /  0 mm 28.0 W/m2 BKN
08:34 6.1 °F /  -14.4 °C 2.0 °F /  -16.7 °C 1020.2 in /  34544 hPa NNW 31.5 mph /  50.7 km/h 31.5 mph /  50.7 km/h 75 % 0.0 in /  0 mm 33.0 W/m2 BKN
08:39 6.1 °F /  -14.4 °C 2.0 °F /  -16.7 °C 1020.2 in /  34544 hPa NW 31.5 mph /  50.7 km/h 31.5 mph /  50.7 km/h 75 % 0.0 in /  0 mm 40.0 W/m2 BKN
08:44 6.1 °F /  -14.4 °C 1.8 °F /  -16.8 °C 1020.2 in /  34544 hPa NW 32.2 mph /  51.8 km/h 32.2 mph /  51.8 km/h 74 % 0.0 in /  0 mm 44.0 W/m2 BKN
08:49 6.1 °F /  -14.4 °C 1.8 °F /  -16.8 °C 1020.2 in /  34544 hPa NNW 31.5 mph /  50.7 km/h 31.5 mph /  50.7 km/h 74 % 0.0 in /  0 mm 47.0 W/m2 SCT
08:54 6.1 °F /  -14.4 °C 1.8 °F /  -16.8 °C 1020.2 in /  34544 hPa NW 42.6 mph /  68.6 km/h 42.6 mph /  68.6 km/h 74 % 0.0 in /  0 mm 51.0 W/m2 SCT
08:59 6.1 °F /  -14.4 °C 1.8 °F /  -16.8 °C 1020.2 in /  34544 hPa NW 38.9 mph /  62.6 km/h 38.9 mph /  62.6 km/h 74 % 0.0 in /  0 mm 58.0 W/m2 SCT
09:04 6.1 °F /  -14.4 °C 1.8 °F /  -16.8 °C 1020.2 in /  34544 hPa NW 27.8 mph /  44.7 km/h 27.8 mph /  44.7 km/h 74 % 0.0 in /  0 mm 72.0 W/m2 SCT
09:09 6.1 °F /  -14.4 °C 1.8 °F /  -16.8 °C 1020.2 in /  34544 hPa NNW 25.7 mph /  41.4 km/h 25.7 mph /  41.4 km/h 74 % 0.0 in /  0 mm 76.0 W/m2 FEW
09:15 6.1 °F /  -14.4 °C 1.8 °F /  -16.8 °C 1020.5 in /  34554.1 hPa NNW 29.0 mph /  46.7 km/h 29.0 mph /  46.7 km/h 74 % 0.0 in /  0 mm 77.0 W/m2 FEW
09:19 6.1 °F /  -14.4 °C 1.8 °F /  -16.8 °C 1020.5 in /  34554.1 hPa NW 37.0 mph /  59.5 km/h 37.0 mph /  59.5 km/h 74 % 0.0 in /  0 mm 79.0 W/m2 FEW
09:24 6.1 °F /  -14.4 °C 1.8 °F /  -16.8 °C 1020.5 in /  34554.1 hPa NNW 38.9 mph /  62.6 km/h 38.9 mph /  62.6 km/h 74 % 0.0 in /  0 mm 84.0 W/m2 FEW
09:29 6.1 °F /  -14.4 °C 1.8 °F /  -16.8 °C 1020.5 in /  34554.1 hPa NW 22.5 mph /  36.2 km/h 22.5 mph /  36.2 km/h 74 % 0.0 in /  0 mm 91.0 W/m2 FEW
09:35 6.1 °F /  -14.4 °C 1.8 °F /  -16.8 °C 1020.5 in /  34554.1 hPa North 31.5 mph /  50.7 km/h 31.5 mph /  50.7 km/h 74 % 0.0 in /  0 mm 113.0 W/m2 CLR
09:40 6.1 °F /  -14.4 °C 1.8 °F /  -16.8 °C 1020.5 in /  34554.1 hPa NW 20.4 mph /  32.8 km/h 20.4 mph /  32.8 km/h 74 % 0.0 in /  0 mm 149.0 W/m2 CLR
09:45 6.7 °F /  -14.1 °C 2.2 °F /  -16.6 °C 1020.5 in /  34554.1 hPa NW 50.0 mph /  80.5 km/h 50.0 mph /  80.5 km/h 73 % 0.0 in /  0 mm 183.0 W/m2 CLR
09:50 6.7 °F /  -14.1 °C 2.2 °F /  -16.6 °C 1020.5 in /  34554.1 hPa WNW 32.2 mph /  51.8 km/h 32.2 mph /  51.8 km/h 73 % 0.0 in /  0 mm 174.0 W/m2 CLR
09:55 6.7 °F /  -14.1 °C 2.2 °F /  -16.6 °C 1020.2 in /  34544 hPa NW 27.8 mph /  44.7 km/h 27.8 mph /  44.7 km/h 73 % 0.0 in /  0 mm 160.0 W/m2 CLR
10:00 6.7 °F /  -14.1 °C 2.0 °F /  -16.7 °C 1020.2 in /  34544 hPa NW 40.2 mph /  64.7 km/h 40.2 mph /  64.7 km/h 72 % 0.0 in /  0 mm 174.0 W/m2 CLR
10:05 6.7 °F /  -14.1 °C 2.0 °F /  -16.7 °C 1020.5 in /  34554.1 hPa NW 35.2 mph /  56.6 km/h 35.2 mph /  56.6 km/h 72 % 0.0 in /  0 mm 181.0 W/m2 CLR
10:10 6.7 °F /  -14.1 °C 2.2 °F /  -16.6 °C 1020.9 in /  34567.7 hPa NNW 27.8 mph /  44.7 km/h 28.0 mph /  45.1 km/h 73 % 0.0 in /  0 mm 179.0 W/m2 CLR
10:15 6.7 °F /  -14.1 °C 2.0 °F /  -16.7 °C 1020.9 in /  34567.7 hPa NW 40.7 mph /  65.5 km/h 40.7 mph /  65.5 km/h 72 % 0.0 in /  0 mm 171.0 W/m2 CLR
10:20 6.7 °F /  -14.1 °C 2.0 °F /  -16.7 °C 1020.9 in /  34567.7 hPa NW 33.3 mph /  53.6 km/h 33.3 mph /  53.6 km/h 72 % 0.0 in /  0 mm 178.0 W/m2 CLR
10:25 6.7 °F /  -14.1 °C 1.8 °F /  -16.8 °C 1020.9 in /  34567.7 hPa NNW 35.2 mph /  56.6 km/h 35.2 mph /  56.6 km/h 71 % 0.0 in /  0 mm 220.0 W/m2 CLR
10:30 7.2 °F /  -13.8 °C 2.5 °F /  -16.4 °C 1020.9 in /  34567.7 hPa NW 43.4 mph /  69.8 km/h 43.4 mph /  69.8 km/h 72 % 0.0 in /  0 mm 218.0 W/m2 CLR
10:35 7.2 °F /  -13.8 °C 2.1 °F /  -16.6 °C 1020.5 in /  34554.1 hPa NNW 42.6 mph /  68.6 km/h 42.6 mph /  68.6 km/h 70 % 0.0 in /  0 mm 225.0 W/m2 CLR
10:40 7.2 °F /  -13.8 °C 2.1 °F /  -16.6 °C 1020.5 in /  34554.1 hPa NW 38.9 mph /  62.6 km/h 38.9 mph /  62.6 km/h 70 % 0.0 in /  0 mm 234.0 W/m2 CLR
10:45 7.2 °F /  -13.8 °C 1.9 °F /  -16.7 °C 1020.9 in /  34567.7 hPa North 51.8 mph /  83.4 km/h 51.8 mph /  83.4 km/h 69 % 0.0 in /  0 mm 243.0 W/m2 CLR
10:50 7.2 °F /  -13.8 °C 2.1 °F /  -16.6 °C 1020.5 in /  34554.1 hPa North 38.9 mph /  62.6 km/h 38.9 mph /  62.6 km/h 70 % 0.0 in /  0 mm 274.0 W/m2 CLR
10:55 7.2 °F /  -13.8 °C 2.1 °F /  -16.6 °C 1020.9 in /  34567.7 hPa North 51.8 mph /  83.4 km/h 51.8 mph /  83.4 km/h 70 % 0.0 in /  0 mm 301.0 W/m2 CLR
11:00 7.8 °F /  -13.4 °C 2.4 °F /  -16.4 °C 1020.5 in /  34554.1 hPa NNW 42.6 mph /  68.6 km/h 42.6 mph /  68.6 km/h 69 % 0.0 in /  0 mm 316.0 W/m2 CLR
11:05 7.8 °F /  -13.4 °C 2.4 °F /  -16.4 °C 1020.5 in /  34554.1 hPa NNW 42.6 mph /  68.6 km/h 42.6 mph /  68.6 km/h 69 % 0.0 in /  0 mm 309.0 W/m2 CLR
11:10 7.8 °F /  -13.4 °C 2.4 °F /  -16.4 °C 1020.9 in /  34567.7 hPa North 42.6 mph /  68.6 km/h 42.6 mph /  68.6 km/h 69 % 0.0 in /  0 mm 403.0 W/m2 CLR
11:15 7.8 °F /  -13.4 °C 2.4 °F /  -16.4 °C 1020.5 in /  34554.1 hPa NW 38.9 mph /  62.6 km/h 38.9 mph /  62.6 km/h 69 % 0.0 in /  0 mm 399.0 W/m2 CLR
11:20 7.8 °F /  -13.4 °C 2.2 °F /  -16.6 °C 1020.5 in /  34554.1 hPa NNW 44.4 mph /  71.5 km/h 44.4 mph /  71.5 km/h 68 % 0.0 in /  0 mm 399.0 W/m2 CLR
11:25 8.3 °F /  -13.2 °C 2.6 °F /  -16.3 °C 1020.9 in /  34567.7 hPa NNW 31.5 mph /  50.7 km/h 31.5 mph /  50.7 km/h 67 % 0.0 in /  0 mm 399.0 W/m2 CLR
11:30 8.3 °F /  -13.2 °C 2.3 °F /  -16.5 °C 1020.9 in /  34567.7 hPa NW 31.5 mph /  50.7 km/h 31.5 mph /  50.7 km/h 66 % 0.0 in /  0 mm 366.0 W/m2 CLR
11:31 8.3 °F /  -13.2 °C 2.3 °F /  -16.5 °C 1020.9 in /  34567.7 hPa NW 35.2 mph /  56.6 km/h 35.2 mph /  56.6 km/h 66 % 0.0 in /  0 mm 338.0 W/m2 CLR
11:36 8.3 °F /  -13.2 °C 2.3 °F /  -16.5 °C 1020.5 in /  34554.1 hPa NW 37.0 mph /  59.5 km/h 37.0 mph /  59.5 km/h 66 % 0.0 in /  0 mm 415.0 W/m2 CLR
11:41 8.3 °F /  -13.2 °C 2.3 °F /  -16.5 °C 1020.5 in /  34554.1 hPa NNW 44.4 mph /  71.5 km/h 44.4 mph /  71.5 km/h 66 % 0.0 in /  0 mm 497.0 W/m2 CLR
11:46 8.9 °F /  -12.8 °C 2.7 °F /  -16.3 °C 1020.5 in /  34554.1 hPa NW 40.2 mph /  64.7 km/h 40.2 mph /  64.7 km/h 65 % 0.0 in /  0 mm 585.0 W/m2 CLR
11:51 8.9 °F /  -12.8 °C 2.7 °F /  -16.3 °C 1020.9 in /  34567.7 hPa NW 42.6 mph /  68.6 km/h 42.6 mph /  68.6 km/h 65 % 0.0 in /  0 mm 563.0 W/m2 CLR
11:56 9.4 °F /  -12.6 °C 2.7 °F /  -16.3 °C 1020.9 in /  34567.7 hPa NNW 42.6 mph /  68.6 km/h 42.6 mph /  68.6 km/h 63 % 0.0 in /  0 mm 563.0 W/m2 CLR
12:01 9.4 °F /  -12.6 °C 2.5 °F /  -16.4 °C 1020.9 in /  34567.7 hPa North 43.4 mph /  69.8 km/h 43.4 mph /  69.8 km/h 62 % 0.0 in /  0 mm 513.0 W/m2 CLR
12:06 9.4 °F /  -12.6 °C 2.7 °F /  -16.3 °C 1020.9 in /  34567.7 hPa NNW 46.3 mph /  74.5 km/h 46.3 mph /  74.5 km/h 63 % 0.0 in /  0 mm 589.0 W/m2 CLR
12:11 9.4 °F /  -12.6 °C 2.7 °F /  -16.3 °C 1020.5 in /  34554.1 hPa NNW 31.5 mph /  50.7 km/h 31.5 mph /  50.7 km/h 63 % 0.0 in /  0 mm 552.0 W/m2 CLR
12:16 9.4 °F /  -12.6 °C 2.3 °F /  -16.5 °C 1020.5 in /  34554.1 hPa North 40.7 mph /  65.5 km/h 40.7 mph /  65.5 km/h 61 % 0.0 in /  0 mm 526.0 W/m2 CLR
12:21 9.4 °F /  -12.6 °C 2.5 °F /  -16.4 °C 1020.5 in /  34554.1 hPa North 42.6 mph /  68.6 km/h 42.6 mph /  68.6 km/h 62 % 0.0 in /  0 mm 534.0 W/m2 CLR
12:26 9.4 °F /  -12.6 °C 2.3 °F /  -16.5 °C 1020.9 in /  34567.7 hPa North 40.7 mph /  65.5 km/h 40.7 mph /  65.5 km/h 61 % 0.0 in /  0 mm 554.0 W/m2 CLR
12:31 9.4 °F /  -12.6 °C 2.5 °F /  -16.4 °C 1020.5 in /  34554.1 hPa NNW 38.9 mph /  62.6 km/h 38.9 mph /  62.6 km/h 62 % 0.0 in /  0 mm 445.0 W/m2 CLR
12:36 9.4 °F /  -12.6 °C 2.5 °F /  -16.4 °C 1020.5 in /  34554.1 hPa NW 40.7 mph /  65.5 km/h 40.7 mph /  65.5 km/h 62 % 0.0 in /  0 mm 388.0 W/m2 CLR
12:41 9.4 °F /  -12.6 °C 2.3 °F /  -16.5 °C 1020.2 in /  34544 hPa North 42.6 mph /  68.6 km/h 42.6 mph /  68.6 km/h 61 % 0.0 in /  0 mm 431.0 W/m2 CLR
12:46 9.4 °F /  -12.6 °C 2.5 °F /  -16.4 °C 1020.5 in /  34554.1 hPa NNW 35.2 mph /  56.6 km/h 35.2 mph /  56.6 km/h 62 % 0.0 in /  0 mm 520.0 W/m2 CLR
12:51 9.4 °F /  -12.6 °C 2.3 °F /  -16.5 °C 1020.2 in /  34544 hPa NW 42.6 mph /  68.6 km/h 42.6 mph /  68.6 km/h 61 % 0.0 in /  0 mm 408.0 W/m2 CLR
12:56 9.4 °F /  -12.6 °C 2.3 °F /  -16.5 °C 1020.2 in /  34544 hPa NW 42.6 mph /  68.6 km/h 42.6 mph /  68.6 km/h 61 % 0.0 in /  0 mm 552.0 W/m2 CLR
13:01 9.4 °F /  -12.6 °C 2.1 °F /  -16.6 °C 1020.2 in /  34544 hPa NNW 37.0 mph /  59.5 km/h 37.0 mph /  59.5 km/h 60 % 0.0 in /  0 mm 439.0 W/m2 CLR
13:06 9.4 °F /  -12.6 °C 2.1 °F /  -16.6 °C 1020.2 in /  34544 hPa NNW 35.4 mph /  57 km/h 35.4 mph /  57 km/h 60 % 0.0 in /  0 mm 454.0 W/m2 CLR
13:11 9.4 °F /  -12.6 °C 2.1 °F /  -16.6 °C 1020.2 in /  34544 hPa North 37.0 mph /  59.5 km/h 37.0 mph /  59.5 km/h 60 % 0.0 in /  0 mm 522.0 W/m2 CLR
13:16 9.4 °F /  -12.6 °C 1.6 °F /  -16.9 °C 1020.2 in /  34544 hPa NNW 37.0 mph /  59.5 km/h 37.0 mph /  59.5 km/h 58 % 0.0 in /  0 mm 429.0 W/m2 CLR
13:21 9.4 °F /  -12.6 °C 1.6 °F /  -16.9 °C 1020.2 in /  34544 hPa North 27.8 mph /  44.7 km/h 27.8 mph /  44.7 km/h 58 % 0.0 in /  0 mm 350.0 W/m2 CLR
13:26 9.4 °F /  -12.6 °C 1.8 °F /  -16.8 °C 1019.9 in /  34533.8 hPa North 29.6 mph /  47.6 km/h 29.6 mph /  47.6 km/h 59 % 0.0 in /  0 mm 619.0 W/m2 CLR
13:31 10.0 °F /  -12.2 °C 2.1 °F /  -16.6 °C 1019.9 in /  34533.8 hPa NW 27.8 mph /  44.7 km/h 27.8 mph /  44.7 km/h 58 % 0.0 in /  0 mm 612.0 W/m2 CLR
13:36 10.6 °F /  -11.9 °C 1.9 °F /  -16.7 °C 1019.9 in /  34533.8 hPa North 33.8 mph /  54.4 km/h 33.8 mph /  54.4 km/h 55 % 0.0 in /  0 mm 601.0 W/m2 CLR
13:41 11.1 °F /  -11.6 °C 2.2 °F /  -16.6 °C 1019.5 in /  34520.3 hPa North 24.1 mph /  38.8 km/h 24.1 mph /  38.8 km/h 54 % 0.0 in /  0 mm 598.0 W/m2 CLR
13:46 11.1 °F /  -11.6 °C 1.9 °F /  -16.7 °C 1019.9 in /  34533.8 hPa NNW 40.7 mph /  65.5 km/h 40.7 mph /  65.5 km/h 53 % 0.0 in /  0 mm 592.0 W/m2 CLR
13:51 11.1 °F /  -11.6 °C 1.6 °F /  -16.9 °C 1019.9 in /  34533.8 hPa North 38.9 mph /  62.6 km/h 38.9 mph /  62.6 km/h 52 % 0.0 in /  0 mm 591.0 W/m2 CLR
13:56 11.1 °F /  -11.6 °C 1.9 °F /  -16.7 °C 1019.5 in /  34520.3 hPa NNW 31.5 mph /  50.7 km/h 31.5 mph /  50.7 km/h 53 % 0.0 in /  0 mm 589.0 W/m2 CLR
14:01 11.1 °F /  -11.6 °C 1.9 °F /  -16.7 °C 1019.2 in /  34510.1 hPa North 32.2 mph /  51.8 km/h 32.2 mph /  51.8 km/h 53 % 0.0 in /  0 mm 585.0 W/m2 CLR
14:06 11.1 °F /  -11.6 °C 1.3 °F /  -17.1 °C 1019.2 in /  34510.1 hPa NNW 44.4 mph /  71.5 km/h 44.4 mph /  71.5 km/h 51 % 0.0 in /  0 mm 578.0 W/m2 CLR
14:11 11.1 °F /  -11.6 °C 1.3 °F /  -17.1 °C 1019.2 in /  34510.1 hPa NW 46.3 mph /  74.5 km/h 46.3 mph /  74.5 km/h 51 % 0.0 in /  0 mm 578.0 W/m2 CLR
14:16 11.1 °F /  -11.6 °C 1.6 °F /  -16.9 °C 1019.2 in /  34510.1 hPa North 45.1 mph /  72.6 km/h 45.1 mph /  72.6 km/h 52 % 0.0 in /  0 mm 575.0 W/m2 CLR
14:21 11.1 °F /  -11.6 °C 1.3 °F /  -17.1 °C 1019.2 in /  34510.1 hPa North 50.0 mph /  80.5 km/h 50.0 mph /  80.5 km/h 51 % 0.0 in /  0 mm 570.0 W/m2 CLR
14:26 11.1 °F /  -11.6 °C 1.6 °F /  -16.9 °C 1018.8 in /  34496.6 hPa NNW 42.6 mph /  68.6 km/h 42.6 mph /  68.6 km/h 52 % 0.0 in /  0 mm 563.0 W/m2 CLR
14:31 11.1 °F /  -11.6 °C 1.9 °F /  -16.7 °C 1018.8 in /  34496.6 hPa NNW 37.0 mph /  59.5 km/h 37.0 mph /  59.5 km/h 53 % 0.0 in /  0 mm 557.0 W/m2 CLR
14:36 11.1 °F /  -11.6 °C 1.3 °F /  -17.1 °C 1018.8 in /  34496.6 hPa NNW 42.6 mph /  68.6 km/h 42.6 mph /  68.6 km/h 51 % 0.0 in /  0 mm 555.0 W/m2 CLR
14:41 11.1 °F /  -11.6 °C 1.1 °F /  -17.2 °C 1018.8 in /  34496.6 hPa NNW 42.6 mph /  68.6 km/h 42.6 mph /  68.6 km/h 50 % 0.0 in /  0 mm 496.0 W/m2 CLR
14:46 10.6 °F /  -11.9 °C 0.3 °F /  -17.6 °C 1018.8 in /  34496.6 hPa North 50.0 mph /  80.5 km/h 50.0 mph /  80.5 km/h 49 % 0.0 in /  0 mm 534.0 W/m2 CLR
14:51 11.1 °F /  -11.6 °C 1.3 °F /  -17.1 °C 1018.8 in /  34496.6 hPa North 44.4 mph /  71.5 km/h 44.4 mph /  71.5 km/h 51 % 0.0 in /  0 mm 547.0 W/m2 CLR
14:56 11.1 °F /  -11.6 °C 1.3 °F /  -17.1 °C 1018.8 in /  34496.6 hPa North 42.6 mph /  68.6 km/h 42.6 mph /  68.6 km/h 51 % 0.0 in /  0 mm 538.0 W/m2 CLR
15:01 11.1 °F /  -11.6 °C 1.3 °F /  -17.1 °C 1018.8 in /  34496.6 hPa NNW 37.0 mph /  59.5 km/h 37.0 mph /  59.5 km/h 51 % 0.0 in /  0 mm 522.0 W/m2 CLR
15:06 11.1 °F /  -11.6 °C 1.3 °F /  -17.1 °C 1018.8 in /  34496.6 hPa NNW 37.0 mph /  59.5 km/h 37.0 mph /  59.5 km/h 51 % 0.0 in /  0 mm 513.0 W/m2 CLR
15:11 11.1 °F /  -11.6 °C 1.3 °F /  -17.1 °C 1018.8 in /  34496.6 hPa NNW 37.0 mph /  59.5 km/h 37.0 mph /  59.5 km/h 51 % 0.0 in /  0 mm 499.0 W/m2 CLR
15:16 11.1 °F /  -11.6 °C 1.1 °F /  -17.2 °C 1018.8 in /  34496.6 hPa North 46.7 mph /  75.2 km/h 46.7 mph /  75.2 km/h 50 % 0.0 in /  0 mm 489.0 W/m2 CLR
15:21 11.1 °F /  -11.6 °C 1.3 °F /  -17.1 °C 1018.8 in /  34496.6 hPa NNW 31.5 mph /  50.7 km/h 31.5 mph /  50.7 km/h 51 % 0.0 in /  0 mm 476.0 W/m2 CLR
15:26 11.1 °F /  -11.6 °C 1.3 °F /  -17.1 °C 1018.8 in /  34496.6 hPa NNW 31.5 mph /  50.7 km/h 31.5 mph /  50.7 km/h 51 % 0.0 in /  0 mm 469.0 W/m2 CLR
15:31 11.1 °F /  -11.6 °C 0.8 °F /  -17.3 °C 1018.8 in /  34496.6 hPa NNW 50.0 mph /  80.5 km/h 50.0 mph /  80.5 km/h 49 % 0.0 in /  0 mm 455.0 W/m2 CLR
15:36 11.1 °F /  -11.6 °C 1.1 °F /  -17.2 °C 1019.2 in /  34510.1 hPa North 38.9 mph /  62.6 km/h 38.9 mph /  62.6 km/h 50 % 0.0 in /  0 mm 446.0 W/m2 CLR
15:41 10.6 °F /  -11.9 °C 0.3 °F /  -17.6 °C 1019.2 in /  34510.1 hPa NW 48.1 mph /  77.4 km/h 48.1 mph /  77.4 km/h 49 % 0.0 in /  0 mm 434.0 W/m2 CLR
15:46 10.6 °F /  -11.9 °C 0.3 °F /  -17.6 °C 1018.8 in /  34496.6 hPa NW 37.0 mph /  59.5 km/h 37.0 mph /  59.5 km/h 49 % 0.0 in /  0 mm 424.0 W/m2 CLR
15:51 10.6 °F /  -11.9 °C 0.6 °F /  -17.4 °C 1018.8 in /  34496.6 hPa NNW 25.9 mph /  41.7 km/h 25.9 mph /  41.7 km/h 50 % 0.0 in /  0 mm 413.0 W/m2 CLR
15:56 11.1 °F /  -11.6 °C 0.2 °F /  -17.7 °C 1018.8 in /  34496.6 hPa NNW 38.9 mph /  62.6 km/h 38.9 mph /  62.6 km/h 47 % 0.0 in /  0 mm 399.0 W/m2 CLR
16:01 10.6 °F /  -11.9 °C -0.9 °F /  -18.3 °C 1018.8 in /  34496.6 hPa NW 42.6 mph /  68.6 km/h 42.6 mph /  68.6 km/h 45 % 0.0 in /  0 mm 385.0 W/m2 CLR
16:06 10.6 °F /  -11.9 °C -0.6 °F /  -18.1 °C 1018.8 in /  34496.6 hPa NW 38.9 mph /  62.6 km/h 38.9 mph /  62.6 km/h 46 % 0.0 in /  0 mm 376.0 W/m2 CLR
16:11 10.6 °F /  -11.9 °C -0.9 °F /  -18.3 °C 1018.8 in /  34496.6 hPa NNW 48.1 mph /  77.4 km/h 48.1 mph /  77.4 km/h 45 % 0.0 in /  0 mm 362.0 W/m2 CLR
16:16 10.6 °F /  -11.9 °C -0.6 °F /  -18.1 °C 1019.2 in /  34510.1 hPa NNW 32.2 mph /  51.8 km/h 32.2 mph /  51.8 km/h 46 % 0.0 in /  0 mm 350.0 W/m2 CLR
16:21 10.6 °F /  -11.9 °C -0.9 °F /  -18.3 °C 1018.8 in /  34496.6 hPa NW 35.4 mph /  57 km/h 35.4 mph /  57 km/h 45 % 0.0 in /  0 mm 334.0 W/m2 CLR
16:26 10.0 °F /  -12.2 °C -1.1 °F /  -18.4 °C 1019.2 in /  34510.1 hPa NNW 38.6 mph /  62.1 km/h 38.6 mph /  62.1 km/h 46 % 0.0 in /  0 mm 320.0 W/m2 CLR
16:31 10.0 °F /  -12.2 °C -1.1 °F /  -18.4 °C 1019.2 in /  34510.1 hPa North 42.6 mph /  68.6 km/h 42.6 mph /  68.6 km/h 46 % 0.0 in /  0 mm 306.0 W/m2 CLR
16:36 10.0 °F /  -12.2 °C -1.1 °F /  -18.4 °C 1019.2 in /  34510.1 hPa NNW 42.6 mph /  68.6 km/h 42.6 mph /  68.6 km/h 46 % 0.0 in /  0 mm 294.0 W/m2 CLR
16:41 10.0 °F /  -12.2 °C -1.1 °F /  -18.4 °C 1019.2 in /  34510.1 hPa North 42.6 mph /  68.6 km/h 42.6 mph /  68.6 km/h 46 % 0.0 in /  0 mm 279.0 W/m2 CLR
16:46 10.0 °F /  -12.2 °C -0.8 °F /  -18.2 °C 1019.2 in /  34510.1 hPa NNW 31.5 mph /  50.7 km/h 31.5 mph /  50.7 km/h 47 % 0.0 in /  0 mm 260.0 W/m2 CLR
16:51 9.4 °F /  -12.6 °C -1.1 °F /  -18.4 °C 1019.2 in /  34510.1 hPa NNW 31.5 mph /  50.7 km/h 31.5 mph /  50.7 km/h 48 % 0.0 in /  0 mm 246.0 W/m2 CLR
16:56 9.4 °F /  -12.6 °C -1.3 °F /  -18.5 °C 1019.2 in /  34510.1 hPa NNW 35.2 mph /  56.6 km/h 35.2 mph /  56.6 km/h 47 % 0.0 in /  0 mm 229.0 W/m2 CLR
17:01 9.4 °F /  -12.6 °C -1.3 °F /  -18.5 °C 1019.2 in /  34510.1 hPa North 31.5 mph /  50.7 km/h 31.5 mph /  50.7 km/h 47 % 0.0 in /  0 mm 211.0 W/m2 CLR
17:06 8.9 °F /  -12.8 °C -1.6 °F /  -18.7 °C 1019.2 in /  34510.1 hPa North 37.0 mph /  59.5 km/h 37.0 mph /  59.5 km/h 48 % 0.0 in /  0 mm 193.0 W/m2 CLR
17:11 8.9 °F /  -12.8 °C -1.3 °F /  -18.5 °C 1019.2 in /  34510.1 hPa NNW 43.4 mph /  69.8 km/h 43.4 mph /  69.8 km/h 49 % 0.0 in /  0 mm 172.0 W/m2 CLR
17:16 8.9 °F /  -12.8 °C -1.8 °F /  -18.8 °C 1019.2 in /  34510.1 hPa NNW 42.6 mph /  68.6 km/h 42.6 mph /  68.6 km/h 47 % 0.0 in /  0 mm 156.0 W/m2 CLR
17:21 8.9 °F /  -12.8 °C -2.1 °F /  -18.9 °C 1019.5 in /  34520.3 hPa NNW 25.9 mph /  41.7 km/h 25.9 mph /  41.7 km/h 46 % 0.0 in /  0 mm 141.0 W/m2 CLR
17:26 8.9 °F /  -12.8 °C -2.7 °F /  -19.3 °C 1019.5 in /  34520.3 hPa NNW 35.2 mph /  56.6 km/h 35.2 mph /  56.6 km/h 44 % 0.0 in /  0 mm 125.0 W/m2 CLR
17:31 8.3 °F /  -13.2 °C -2.9 °F /  -19.4 °C 1019.5 in /  34520.3 hPa North 42.6 mph /  68.6 km/h 42.6 mph /  68.6 km/h 45 % 0.0 in /  0 mm 105.0 W/m2 CLR
17:36 8.3 °F /  -13.2 °C -2.9 °F /  -19.4 °C 1019.5 in /  34520.3 hPa NNW 40.7 mph /  65.5 km/h 40.7 mph /  65.5 km/h 45 % 0.0 in /  0 mm 83.0 W/m2 CLR
17:41 8.3 °F /  -13.2 °C -2.3 °F /  -19.1 °C 1019.5 in /  34520.3 hPa NNW 20.4 mph /  32.8 km/h 24.6 mph /  39.6 km/h 47 % 0.0 in /  0 mm 69.0 W/m2 FEW
17:46 8.3 °F /  -13.2 °C -2.1 °F /  -18.9 °C 1019.5 in /  34520.3 hPa North 31.5 mph /  50.7 km/h 31.5 mph /  50.7 km/h 48 % 0.0 in /  0 mm 58.0 W/m2 SCT
17:51 8.3 °F /  -13.2 °C -2.1 °F /  -18.9 °C 1019.5 in /  34520.3 hPa NNW 37.0 mph /  59.5 km/h 37.0 mph /  59.5 km/h 48 % 0.0 in /  0 mm 46.0 W/m2 SCT
17:56 8.3 °F /  -13.2 °C -2.1 °F /  -18.9 °C 1019.5 in /  34520.3 hPa NNW 38.9 mph /  62.6 km/h 38.9 mph /  62.6 km/h 48 % 0.0 in /  0 mm 35.0 W/m2 BKN
18:01 7.8 °F /  -13.4 °C -2.3 °F /  -19.1 °C 1019.5 in /  34520.3 hPa NNW 37.0 mph /  59.5 km/h 37.0 mph /  59.5 km/h 49 % 0.0 in /  0 mm 25.0 W/m2 BKN
18:07 7.8 °F /  -13.4 °C -2.3 °F /  -19.1 °C 1019.9 in /  34533.8 hPa North 31.5 mph /  50.7 km/h 31.5 mph /  50.7 km/h 49 % 0.0 in /  0 mm 18.0 W/m2 BKN
18:12 7.8 °F /  -13.4 °C -2.3 °F /  -19.1 °C 1019.9 in /  34533.8 hPa NNW 31.5 mph /  50.7 km/h 31.5 mph /  50.7 km/h 49 % 0.0 in /  0 mm 12.0 W/m2 BKN
18:17 7.2 °F /  -13.8 °C -2.5 °F /  -19.2 °C 1019.5 in /  34520.3 hPa NNW 42.6 mph /  68.6 km/h 42.6 mph /  68.6 km/h 50 % 0.0 in /  0 mm 9.0 W/m2 BKN
18:22 7.2 °F /  -13.8 °C -1.7 °F /  -18.7 °C 1019.9 in /  34533.8 hPa NNW 44.4 mph /  71.5 km/h 44.4 mph /  71.5 km/h 53 % 0.0 in /  0 mm 7.0 W/m2 BKN
18:27 7.2 °F /  -13.8 °C -1.2 °F /  -18.4 °C 1019.9 in /  34533.8 hPa NNW 44.4 mph /  71.5 km/h 44.4 mph /  71.5 km/h 55 % 0.0 in /  0 mm 5.0 W/m2 OVC
18:32 7.2 °F /  -13.8 °C -1.2 °F /  -18.4 °C 1019.9 in /  34533.8 hPa NW 33.3 mph /  53.6 km/h 33.3 mph /  53.6 km/h 55 % 0.0 in /  0 mm 0.0 W/m2 OVC
18:37 6.7 °F /  -14.1 °C -1.7 °F /  -18.7 °C 1019.9 in /  34533.8 hPa NNW 42.6 mph /  68.6 km/h 42.6 mph /  68.6 km/h 55 % 0.0 in /  0 mm 0.0 W/m2 OVC
18:42 6.7 °F /  -14.1 °C -1.7 °F /  -18.7 °C 1019.9 in /  34533.8 hPa NW 27.8 mph /  44.7 km/h 27.8 mph /  44.7 km/h 55 % 0.0 in /  0 mm 0.0 W/m2 CLR
18:47 6.7 °F /  -14.1 °C -1.7 °F /  -18.7 °C 1019.9 in /  34533.8 hPa NNW 31.5 mph /  50.7 km/h 31.5 mph /  50.7 km/h 55 % 0.0 in /  0 mm 0.0 W/m2 CLR
18:52 6.7 °F /  -14.1 °C -1.5 °F /  -18.6 °C 1020.2 in /  34544 hPa NNW 29.6 mph /  47.6 km/h 29.6 mph /  47.6 km/h 56 % 0.0 in /  0 mm 0.0 W/m2 CLR
18:57 6.7 °F /  -14.1 °C -1.5 °F /  -18.6 °C 1020.2 in /  34544 hPa NNW 37.0 mph /  59.5 km/h 37.0 mph /  59.5 km/h 56 % 0.0 in /  0 mm 0.0 W/m2 CLR
19:02 6.1 °F /  -14.4 °C -1.8 °F /  -18.8 °C 1020.2 in /  34544 hPa NNW 27.8 mph /  44.7 km/h 27.8 mph /  44.7 km/h 57 % 0.0 in /  0 mm 0.0 W/m2 CLR
19:07 6.1 °F /  -14.4 °C -1.6 °F /  -18.7 °C 1020.5 in /  34554.1 hPa North 24.1 mph /  38.8 km/h 24.1 mph /  38.8 km/h 58 % 0.0 in /  0 mm 0.0 W/m2 CLR
19:12 6.1 °F /  -14.4 °C -1.6 °F /  -18.7 °C 1020.5 in /  34554.1 hPa NNW 35.2 mph /  56.6 km/h 35.2 mph /  56.6 km/h 58 % 0.0 in /  0 mm 0.0 W/m2 CLR
19:17 6.1 °F /  -14.4 °C -1.6 °F /  -18.7 °C 1020.9 in /  34567.7 hPa North 31.5 mph /  50.7 km/h 31.5 mph /  50.7 km/h 58 % 0.0 in /  0 mm 0.0 W/m2 CLR
19:22 6.1 °F /  -14.4 °C -1.6 °F /  -18.7 °C 1020.9 in /  34567.7 hPa NNW 33.3 mph /  53.6 km/h 33.3 mph /  53.6 km/h 58 % 0.0 in /  0 mm 0.0 W/m2 CLR
19:27 6.1 °F /  -14.4 °C -1.3 °F /  -18.5 °C 1020.9 in /  34567.7 hPa NNW 27.8 mph /  44.7 km/h 27.8 mph /  44.7 km/h 59 % 0.0 in /  0 mm 0.0 W/m2 CLR
19:32 5.6 °F /  -14.7 °C -1.8 °F /  -18.8 °C 1020.9 in /  34567.7 hPa North 25.9 mph /  41.7 km/h 25.9 mph /  41.7 km/h 59 % 0.0 in /  0 mm 0.0 W/m2 CLR
19:37 5.6 °F /  -14.7 °C -1.6 °F /  -18.7 °C 1021.2 in /  34577.8 hPa NNW 33.3 mph /  53.6 km/h 33.3 mph /  53.6 km/h 60 % 0.0 in /  0 mm 0.0 W/m2 CLR
19:42 5.6 °F /  -14.7 °C -1.6 °F /  -18.7 °C 1021.2 in /  34577.8 hPa North 37.0 mph /  59.5 km/h 37.0 mph /  59.5 km/h 60 % 0.0 in /  0 mm 0.0 W/m2 CLR
19:47 5.6 °F /  -14.7 °C -1.6 °F /  -18.7 °C 1021.2 in /  34577.8 hPa NNW 33.3 mph /  53.6 km/h 33.3 mph /  53.6 km/h 60 % 0.0 in /  0 mm 0.0 W/m2 CLR
19:52 5.6 °F /  -14.7 °C -1.6 °F /  -18.7 °C 1021.6 in /  34591.4 hPa North 25.9 mph /  41.7 km/h 25.9 mph /  41.7 km/h 60 % 0.0 in /  0 mm 0.0 W/m2 CLR
19:57 5.6 °F /  -14.7 °C -1.4 °F /  -18.6 °C 1021.6 in /  34591.4 hPa NNW 27.8 mph /  44.7 km/h 27.8 mph /  44.7 km/h 61 % 0.0 in /  0 mm 0.0 W/m2 CLR
20:02 5.6 °F /  -14.7 °C -1.4 °F /  -18.6 °C 1021.6 in /  34591.4 hPa NNW 24.1 mph /  38.8 km/h 24.1 mph /  38.8 km/h 61 % 0.0 in /  0 mm 0.0 W/m2 CLR
20:07 5.0 °F /  -15 °C -1.7 °F /  -18.7 °C 1021.6 in /  34591.4 hPa North 29.6 mph /  47.6 km/h 29.6 mph /  47.6 km/h 62 % 0.0 in /  0 mm 0.0 W/m2 CLR
20:12 5.0 °F /  -15 °C -1.7 °F /  -18.7 °C 1021.6 in /  34591.4 hPa North 24.1 mph /  38.8 km/h 24.1 mph /  38.8 km/h 62 % 0.0 in /  0 mm 0.0 W/m2 CLR
20:17 5.0 °F /  -15 °C -1.4 °F /  -18.6 °C 1021.6 in /  34591.4 hPa North 22.2 mph /  35.7 km/h 22.2 mph /  35.7 km/h 63 % 0.0 in /  0 mm 0.0 W/m2 CLR
20:22 5.0 °F /  -15 °C -1.4 °F /  -18.6 °C 1021.9 in /  34601.5 hPa NNW 22.2 mph /  35.7 km/h 22.2 mph /  35.7 km/h 63 % 0.0 in /  0 mm 0.0 W/m2 CLR
20:27 5.0 °F /  -15 °C -1.4 °F /  -18.6 °C 1021.9 in /  34601.5 hPa NNW 20.4 mph /  32.8 km/h 20.4 mph /  32.8 km/h 63 % 0.0 in /  0 mm 0.0 W/m2 CLR
20:32 5.0 °F /  -15 °C -1.4 °F /  -18.6 °C 1021.9 in /  34601.5 hPa NNW 22.2 mph /  35.7 km/h 22.2 mph /  35.7 km/h 63 % 0.0 in /  0 mm 0.0 W/m2 CLR
20:37 4.4 °F /  -15.3 °C -1.8 °F /  -18.8 °C 1021.9 in /  34601.5 hPa NNW 18.5 mph /  29.8 km/h 18.5 mph /  29.8 km/h 64 % 0.0 in /  0 mm 0.0 W/m2 CLR
20:42 4.4 °F /  -15.3 °C -1.6 °F /  -18.7 °C 1021.9 in /  34601.5 hPa NNW 22.5 mph /  36.2 km/h 22.5 mph /  36.2 km/h 65 % 0.0 in /  0 mm 0.0 W/m2 CLR
20:47 4.4 °F /  -15.3 °C -1.6 °F /  -18.7 °C 1021.9 in /  34601.5 hPa NNW 20.4 mph /  32.8 km/h 20.4 mph /  32.8 km/h 65 % 0.0 in /  0 mm 0.0 W/m2 CLR
20:52 4.4 °F /  -15.3 °C -1.6 °F /  -18.7 °C 1021.9 in /  34601.5 hPa NW 25.9 mph /  41.7 km/h 25.9 mph /  41.7 km/h 65 % 0.0 in /  0 mm 0.0 W/m2 CLR
20:57 4.4 °F /  -15.3 °C -1.6 °F /  -18.7 °C 1021.9 in /  34601.5 hPa NNW 24.1 mph /  38.8 km/h 24.1 mph /  38.8 km/h 65 % 0.0 in /  0 mm 0.0 W/m2 CLR
21:02 4.4 °F /  -15.3 °C -1.6 °F /  -18.7 °C 1021.9 in /  34601.5 hPa NW 31.5 mph /  50.7 km/h 31.5 mph /  50.7 km/h 65 % 0.0 in /  0 mm 0.0 W/m2 CLR
21:07 4.4 °F /  -15.3 °C -1.6 °F /  -18.7 °C 1022.2 in /  34611.7 hPa NW 25.9 mph /  41.7 km/h 25.9 mph /  41.7 km/h 65 % 0.0 in /  0 mm 0.0 W/m2 CLR
21:12 4.4 °F /  -15.3 °C -1.6 °F /  -18.7 °C 1022.2 in /  34611.7 hPa NW 25.9 mph /  41.7 km/h 25.9 mph /  41.7 km/h 65 % 0.0 in /  0 mm 0.0 W/m2 CLR
21:17 4.4 °F /  -15.3 °C -1.6 °F /  -18.7 °C 1022.2 in /  34611.7 hPa NNW 27.8 mph /  44.7 km/h 27.8 mph /  44.7 km/h 65 % 0.0 in /  0 mm 0.0 W/m2 CLR
21:22 4.4 °F /  -15.3 °C -1.3 °F /  -18.5 °C 1022.2 in /  34611.7 hPa North 25.9 mph /  41.7 km/h 25.9 mph /  41.7 km/h 66 % 0.0 in /  0 mm 0.0 W/m2 CLR
21:27 4.4 °F /  -15.3 °C -1.3 °F /  -18.5 °C 1022.2 in /  34611.7 hPa NNW 31.5 mph /  50.7 km/h 31.5 mph /  50.7 km/h 66 % 0.0 in /  0 mm 0.0 W/m2 CLR
21:32 4.4 °F /  -15.3 °C -1.3 °F /  -18.5 °C 1022.2 in /  34611.7 hPa NNW 25.9 mph /  41.7 km/h 25.9 mph /  41.7 km/h 66 % 0.0 in /  0 mm 0.0 W/m2 CLR
21:37 3.9 °F /  -15.6 °C -1.7 °F /  -18.7 °C 1022.6 in /  34625.2 hPa NNW 20.4 mph /  32.8 km/h 20.4 mph /  32.8 km/h 67 % 0.0 in /  0 mm 0.0 W/m2 CLR
21:42 3.9 °F /  -15.6 °C -1.7 °F /  -18.7 °C 1022.6 in /  34625.2 hPa NNW 29.6 mph /  47.6 km/h 29.6 mph /  47.6 km/h 67 % 0.0 in /  0 mm 0.0 W/m2 CLR
21:47 3.9 °F /  -15.6 °C -1.5 °F /  -18.6 °C 1022.6 in /  34625.2 hPa NW 16.7 mph /  26.9 km/h 16.7 mph /  26.9 km/h 68 % 0.0 in /  0 mm 0.0 W/m2 CLR
21:52 3.9 °F /  -15.6 °C -1.5 °F /  -18.6 °C 1022.6 in /  34625.2 hPa NW 22.2 mph /  35.7 km/h 22.2 mph /  35.7 km/h 68 % 0.0 in /  0 mm 0.0 W/m2 CLR
21:57 3.9 °F /  -15.6 °C -1.3 °F /  -18.5 °C 1022.6 in /  34625.2 hPa NNW 25.9 mph /  41.7 km/h 25.9 mph /  41.7 km/h 69 % 0.0 in /  0 mm 0.0 W/m2 CLR
22:02 3.3 °F /  -15.9 °C -1.8 °F /  -18.8 °C 1022.6 in /  34625.2 hPa NW 29.6 mph /  47.6 km/h 29.6 mph /  47.6 km/h 69 % 0.0 in /  0 mm 0.0 W/m2 CLR
22:07 3.9 °F /  -15.6 °C -1.3 °F /  -18.5 °C 1022.6 in /  34625.2 hPa NW 18.5 mph /  29.8 km/h 18.5 mph /  29.8 km/h 69 % 0.0 in /  0 mm 0.0 W/m2 CLR
22:12 3.3 °F /  -15.9 °C -2.0 °F /  -18.9 °C 1022.6 in /  34625.2 hPa NW 22.2 mph /  35.7 km/h 22.2 mph /  35.7 km/h 68 % 0.0 in /  0 mm 0.0 W/m2 CLR
22:17 3.3 °F /  -15.9 °C -2.0 °F /  -18.9 °C 1022.9 in /  34635.4 hPa NW 20.4 mph /  32.8 km/h 20.4 mph /  32.8 km/h 68 % 0.0 in /  0 mm 0.0 W/m2 CLR
22:22 3.3 °F /  -15.9 °C -2.0 °F /  -18.9 °C 1022.6 in /  34625.2 hPa NNW 20.4 mph /  32.8 km/h 20.4 mph /  32.8 km/h 68 % 0.0 in /  0 mm 0.0 W/m2 CLR
22:27 3.3 °F /  -15.9 °C -2.0 °F /  -18.9 °C 1022.9 in /  34635.4 hPa NW 22.2 mph /  35.7 km/h 22.2 mph /  35.7 km/h 68 % 0.0 in /  0 mm 0.0 W/m2 CLR
22:32 3.3 °F /  -15.9 °C -2.0 °F /  -18.9 °C 1022.9 in /  34635.4 hPa NW 25.9 mph /  41.7 km/h 25.9 mph /  41.7 km/h 68 % 0.0 in /  0 mm 0.0 W/m2 CLR
22:37 3.3 °F /  -15.9 °C -2.0 °F /  -18.9 °C 1022.9 in /  34635.4 hPa NW 22.2 mph /  35.7 km/h 22.2 mph /  35.7 km/h 68 % 0.0 in /  0 mm 0.0 W/m2 CLR
22:43 3.3 °F /  -15.9 °C -2.2 °F /  -19 °C 1022.9 in /  34635.4 hPa NW 24.1 mph /  38.8 km/h 24.1 mph /  38.8 km/h 67 % 0.0 in /  0 mm 0.0 W/m2 CLR
22:48 3.3 °F /  -15.9 °C -2.2 °F /  -19 °C 1022.9 in /  34635.4 hPa WNW 25.9 mph /  41.7 km/h 25.9 mph /  41.7 km/h 67 % 0.0 in /  0 mm 0.0 W/m2 CLR
22:53 3.3 °F /  -15.9 °C -2.0 °F /  -18.9 °C 1022.9 in /  34635.4 hPa WNW 22.2 mph /  35.7 km/h 22.2 mph /  35.7 km/h 68 % 0.0 in /  0 mm 0.0 W/m2 CLR
22:58 3.3 °F /  -15.9 °C -2.0 °F /  -18.9 °C 1022.9 in /  34635.4 hPa NW 27.8 mph /  44.7 km/h 27.8 mph /  44.7 km/h 68 % 0.0 in /  0 mm 0.0 W/m2 CLR
23:03 2.8 °F /  -16.2 °C -2.3 °F /  -19.1 °C 1023.2 in /  34645.6 hPa NW 24.1 mph /  38.8 km/h 24.1 mph /  38.8 km/h 69 % 0.0 in /  0 mm 0.0 W/m2 CLR
23:08 2.8 °F /  -16.2 °C -2.3 °F /  -19.1 °C 1023.2 in /  34645.6 hPa NW 19.3 mph /  31.1 km/h 19.3 mph /  31.1 km/h 69 % 0.0 in /  0 mm 0.0 W/m2 CLR
23:13 2.8 °F /  -16.2 °C -2.3 °F /  -19.1 °C 1023.2 in /  34645.6 hPa NW 18.5 mph /  29.8 km/h 18.5 mph /  29.8 km/h 69 % 0.0 in /  0 mm 0.0 W/m2 CLR
23:18 2.8 °F /  -16.2 °C -2.2 °F /  -19 °C 1023.2 in /  34645.6 hPa NW 20.4 mph /  32.8 km/h 20.4 mph /  32.8 km/h 70 % 0.0 in /  0 mm 0.0 W/m2 CLR
23:23 2.8 °F /  -16.2 °C -2.2 °F /  -19 °C 1023.2 in /  34645.6 hPa NW 19.3 mph /  31.1 km/h 19.3 mph /  31.1 km/h 70 % 0.0 in /  0 mm 0.0 W/m2 CLR
23:28 2.8 °F /  -16.2 °C -2.2 °F /  -19 °C 1023.2 in /  34645.6 hPa West 18.5 mph /  29.8 km/h 18.5 mph /  29.8 km/h 70 % 0.0 in /  0 mm 0.0 W/m2 CLR
23:33 2.8 °F /  -16.2 °C -2.2 °F /  -19 °C 1023.2 in /  34645.6 hPa WNW 18.5 mph /  29.8 km/h 18.5 mph /  29.8 km/h 70 % 0.0 in /  0 mm 0.0 W/m2 CLR
23:38 2.8 °F /  -16.2 °C -2.2 °F /  -19 °C 1023.6 in /  34659.1 hPa NW 18.5 mph /  29.8 km/h 18.5 mph /  29.8 km/h 70 % 0.0 in /  0 mm 0.0 W/m2 CLR
23:43 2.8 °F /  -16.2 °C -1.9 °F /  -18.8 °C 1023.6 in /  34659.1 hPa NW 20.9 mph /  33.6 km/h 20.9 mph /  33.6 km/h 71 % 0.0 in /  0 mm 0.0 W/m2 CLR
23:48 2.8 °F /  -16.2 °C -1.9 °F /  -18.8 °C 1023.6 in /  34659.1 hPa NNW 16.7 mph /  26.9 km/h 16.7 mph /  26.9 km/h 71 % 0.0 in /  0 mm 0.0 W/m2 CLR
23:53 2.8 °F /  -16.2 °C -1.9 °F /  -18.8 °C 1023.6 in /  34659.1 hPa NW 19.3 mph /  31.1 km/h 19.3 mph /  31.1 km/h 71 % 0.0 in /  0 mm 0.0 W/m2 CLR
23:58 2.8 °F /  -16.2 °C -1.9 °F /  -18.8 °C 1023.6 in /  34659.1 hPa NW 14.8 mph /  23.8 km/h 14.8 mph /  23.8 km/h 71 % 0.0 in /  0 mm 0.0 W/m2 CLR
Lo Temps de Massalio
Compliments of Weather Underground - 1.25 mb